NorthWeedRWIS Atmospheric Data: 05/15/2019 Summary  Detailed Graphs  Station List

  Temperature     Wind Precipitation Visibility
Timestamp Air Wet
Bulb
Dew-
point
24-hr
Max
24-hr
Min
Relative
Humidity
Atmospheric
Pressure
Avg
Speed
Avg
Dir
Spot
Speed
Spot
Dir
Max
Speed
Max
Dir
  Rate Situation Start End 1 hr 3 hr 6 hr 12 hr 24 hr   Situation
Date Time °F °F °F °F °F % in Hg mph ° mph ° mph ° Y/N in/hr text Date Time Date Time in in in in in mi text
05/15/2019 12:03 AM 55.22 47.84 40.64 80.06 47.30 58.0 Not Reported 5.37 SE 7.61 S 7.16 SE No 0.000 No Precipitation 04/20/2019 02:31 PM 04/20/2019 02:36 PM 0.000 0.000 0.000 0.000 0.000 Not Reported Not Reported
05/15/2019 12:18 AM 55.22 48.02 40.82 80.06 47.30 58.0 Not Reported 7.61 SE 6.26 SE 8.28 SE No 0.000 No Precipitation 04/20/2019 02:31 PM 04/20/2019 02:36 PM 0.000 0.000 0.000 0.000 0.000 Not Reported Not Reported
05/15/2019 12:33 AM 55.22 48.02 41.00 80.06 47.30 58.0 Not Reported 9.17 SE 6.49 SE 9.84 SE No 0.000 No Precipitation 04/20/2019 02:31 PM 04/20/2019 02:36 PM 0.000 0.000 0.000 0.000 0.000 Not Reported Not Reported
05/15/2019 12:48 AM 55.22 48.20 41.18 80.06 47.30 58.0 Not Reported 11.63 SE 10.96 SE 11.41 S No 0.000 No Precipitation 04/20/2019 02:31 PM 04/20/2019 02:36 PM 0.000 0.000 0.000 0.000 0.000 Not Reported Not Reported
05/15/2019 01:03 AM 55.58 48.02 40.82 66.02 54.86 57.0 Not Reported 11.63 SE 10.07 SE 12.53 SE No 0.000 No Precipitation 04/20/2019 02:31 PM 04/20/2019 02:36 PM 0.000 0.000 0.000 0.000 0.000 Not Reported Not Reported
05/15/2019 01:18 AM 55.94 48.02 40.10 66.02 54.86 55.0 Not Reported 12.97 SE 12.97 SE 12.75 SE No 0.000 No Precipitation 04/20/2019 02:31 PM 04/20/2019 02:36 PM 0.000 0.000 0.000 0.000 0.000 Not Reported Not Reported
05/15/2019 01:33 AM 56.12 48.02 39.74 66.02 54.86 54.0 Not Reported 14.32 SE 11.63 SE 15.21 SE No 0.000 No Precipitation 04/20/2019 02:31 PM 04/20/2019 02:36 PM 0.000 0.000 0.000 0.000 0.000 Not Reported Not Reported
05/15/2019 01:48 AM 55.94 47.84 39.92 66.02 54.86 54.0 Not Reported 14.99 SE 15.21 SE 17.90 SE No 0.000 No Precipitation 04/20/2019 02:31 PM 04/20/2019 02:36 PM 0.000 0.000 0.000 0.000 0.000 Not Reported Not Reported
05/15/2019 02:03 AM 56.12 48.02 40.10 66.02 54.86 54.0 Not Reported 12.97 SE 11.18 S 15.88 SE No 0.000 No Precipitation 04/20/2019 02:31 PM 04/20/2019 02:36 PM 0.000 0.000 0.000 0.000 0.000 Not Reported Not Reported
05/15/2019 02:18 AM 55.58 48.02 40.64 66.02 54.86 56.0 Not Reported 13.20 SE 11.18 SE 14.32 SE No 0.000 No Precipitation 04/20/2019 02:31 PM 04/20/2019 02:36 PM 0.000 0.000 0.000 0.000 0.000 Not Reported Not Reported
05/15/2019 02:33 AM 55.40 48.02 40.82 66.02 54.86 57.0 Not Reported 14.76 SE 15.66 SE 17.00 SE No 0.000 No Precipitation 04/20/2019 02:31 PM 04/20/2019 02:36 PM 0.000 0.000 0.000 0.000 0.000 Not Reported Not Reported
05/15/2019 02:48 AM 55.22 48.02 41.00 66.02 54.86 58.0 Not Reported 15.66 SE 15.21 SE 17.22 SE No 0.000 No Precipitation 04/20/2019 02:31 PM 04/20/2019 02:36 PM 0.000 0.000 0.000 0.000 0.000 Not Reported Not Reported
05/15/2019 03:03 AM 55.22 48.02 41.00 66.02 54.86 58.0 Not Reported 13.20 SE 14.09 SE 14.09 SE No 0.000 No Precipitation 04/20/2019 02:31 PM 04/20/2019 02:36 PM 0.000 0.000 0.000 0.000 0.000 Not Reported Not Reported
05/15/2019 03:18 AM 55.04 48.02 41.00 66.02 54.86 59.0 Not Reported 15.66 SE 13.87 SE 17.67 SE No 0.000 No Precipitation 04/20/2019 02:31 PM 04/20/2019 02:36 PM 0.000 0.000 0.000 0.000 0.000 Not Reported Not Reported
05/15/2019 03:33 AM 54.32 47.84 41.36 66.02 54.86 61.0 Not Reported 10.51 SE 10.51 SE 17.22 E No 0.000 No Precipitation 04/20/2019 02:31 PM 04/20/2019 02:36 PM 0.000 0.000 0.000 0.000 0.000 Not Reported Not Reported
05/15/2019 03:48 AM 53.78 47.66 41.90 66.02 54.86 63.0 Not Reported 7.38 SE 7.16 SE 11.41 SE No 0.000 No Precipitation 04/20/2019 02:31 PM 04/20/2019 02:36 PM 0.000 0.000 0.000 0.000 0.000 Not Reported Not Reported
05/15/2019 04:03 AM 53.60 47.66 41.90 66.02 54.86 64.0 Not Reported 11.41 SE 13.20 SE 12.75 SE No 0.000 No Precipitation 04/20/2019 02:31 PM 04/20/2019 02:36 PM 0.000 0.000 0.000 0.000 0.000 Not Reported Not Reported
05/15/2019 04:18 AM 53.60 47.84 42.08 66.02 54.86 64.0 Not Reported 12.08 SE 8.28 SE 16.78 SE No 0.000 No Precipitation 04/20/2019 02:31 PM 04/20/2019 02:36 PM 0.000 0.000 0.000 0.000 0.000 Not Reported Not Reported
05/15/2019 04:33 AM 53.42 47.66 42.26 66.02 54.86 65.0 Not Reported 7.83 SE 3.13 SE 10.07 SE No 0.000 No Precipitation 04/20/2019 02:31 PM 04/20/2019 02:36 PM 0.000 0.000 0.000 0.000 0.000 Not Reported Not Reported
05/15/2019 04:48 AM 53.24 47.66 42.08 66.02 54.86 66.0 Not Reported 10.51 SE 11.18 SE 8.95 S No 0.000 No Precipitation 04/20/2019 02:31 PM 04/20/2019 02:36 PM 0.000 0.000 0.000 0.000 0.000 Not Reported Not Reported
05/15/2019 05:03 AM 52.88 47.84 43.16 66.02 54.86 69.0 Not Reported 11.86 SE 10.29 SE 15.43 SE No 0.000 No Precipitation 04/20/2019 02:31 PM 04/20/2019 02:36 PM 0.000 0.000 0.000 0.000 0.000 Not Reported Not Reported
05/15/2019 05:18 AM 51.98 47.84 44.24 66.02 54.86 74.0 Not Reported 14.76 SE 14.09 SE 16.11 SE No 0.000 No Precipitation 04/20/2019 02:31 PM 04/20/2019 02:36 PM 0.000 0.000 0.000 0.000 0.000 Not Reported Not Reported
05/15/2019 05:33 AM 51.98 47.84 43.88 66.02 54.86 74.0 Not Reported 16.11 SE 19.24 SE 17.45 SE No 0.000 No Precipitation 04/20/2019 02:31 PM 04/20/2019 02:36 PM 0.000 0.000 0.000 0.000 0.000 Not Reported Not Reported
05/15/2019 05:48 AM 52.34 47.84 43.70 66.02 54.86 72.0 Not Reported 19.01 SE 19.69 SE 19.24 SE No 0.000 No Precipitation 04/20/2019 02:31 PM 04/20/2019 02:36 PM 0.000 0.000 0.000 0.000 0.000 Not Reported Not Reported
05/15/2019 06:03 AM 51.62 47.48 43.70 66.02 54.86 74.0 Not Reported 12.08 SE 14.32 SE 21.70 SE No 0.000 No Precipitation 04/20/2019 02:31 PM 04/20/2019 02:36 PM 0.000 0.000 0.000 0.000 0.000 Not Reported Not Reported
05/15/2019 06:18 AM 51.80 47.30 42.98 66.02 54.86 71.0 Not Reported 13.20 SE 17.00 SE 20.36 SE No 0.000 No Precipitation 04/20/2019 02:31 PM 04/20/2019 02:36 PM 0.000 0.000 0.000 0.000 0.000 Not Reported Not Reported
05/15/2019 06:33 AM 52.34 47.48 42.44 66.02 54.86 68.0 Not Reported 13.87 SE 17.22 SE 18.12 SE No 0.000 No Precipitation 04/20/2019 02:31 PM 04/20/2019 02:36 PM 0.000 0.000 0.000 0.000 0.000 Not Reported Not Reported
05/15/2019 06:48 AM 52.16 46.94 41.72 66.02 54.86 67.0 Not Reported 14.32 SE 20.80 SE 20.13 SE No 0.000 No Precipitation 04/20/2019 02:31 PM 04/20/2019 02:36 PM 0.000 0.000 0.000 0.000 0.000 Not Reported Not Reported
05/15/2019 07:03 AM 51.80 46.94 42.26 66.02 54.86 69.0 Not Reported 9.62 SE 8.28 SE 17.22 S No 0.000 No Precipitation 04/20/2019 02:31 PM 04/20/2019 02:36 PM 0.000 0.000 0.000 0.000 0.000 Not Reported Not Reported
05/15/2019 07:18 AM 50.90 46.94 43.16 66.02 54.86 74.0 Not Reported 10.51 SE 10.29 SE 17.45 SE No 0.000 No Precipitation 04/20/2019 02:31 PM 04/20/2019 02:36 PM 0.000 0.000 0.000 0.000 0.000 Not Reported Not Reported
05/15/2019 07:33 AM 51.08 47.12 43.34 66.02 54.86 74.0 Not Reported 8.50 SE 9.84 SE 12.30 SE No 0.000 No Precipitation 04/20/2019 02:31 PM 04/20/2019 02:36 PM 0.000 0.000 0.000 0.000 0.000 Not Reported Not Reported
05/15/2019 07:48 AM 51.44 47.12 42.80 66.02 54.86 72.0 Not Reported 10.74 SE 8.72 SE 12.30 SE No 0.000 No Precipitation 04/20/2019 02:31 PM 04/20/2019 02:36 PM 0.000 0.000 0.000 0.000 0.000 Not Reported Not Reported
05/15/2019 08:03 AM 51.44 47.30 43.34 66.02 54.86 74.0 Not Reported 9.62 SE 6.93 SE 12.97 SE No 0.000 No Precipitation 04/20/2019 02:31 PM 04/20/2019 02:36 PM 0.000 0.000 0.000 0.000 0.000 Not Reported Not Reported
05/15/2019 08:18 AM 50.36 47.30 44.24 66.02 54.86 79.0 Not Reported 8.50 SE 8.28 SE 12.53 SE No 0.000 No Precipitation 05/15/2019 12:09 AM 05/15/2019 12:14 AM 0.004 0.004 0.004 0.004 0.004 Not Reported Not Reported
05/15/2019 08:33 AM 50.90 47.30 44.06 66.02 54.86 77.0 Not Reported 10.51 SE 7.83 E 12.30 SE No 0.000 No Precipitation 05/15/2019 12:09 AM 05/15/2019 12:14 AM 0.004 0.004 0.004 0.004 0.004 Not Reported Not Reported
05/15/2019 08:48 AM 50.36 47.12 43.70 66.02 54.86 77.0 Not Reported 6.49 SE 9.62 SE 13.65 SE Yes 0.043 Rain Slight 05/15/2019 12:44 AM   0.008 0.008 0.008 0.008 0.008 Not Reported Not Reported
05/15/2019 09:03 AM 49.82 46.94 44.06 66.02 54.86 80.0 Not Reported 5.37 SE 10.29 SE 10.29 S No 0.000 No Precipitation 05/15/2019 12:57 AM 05/15/2019 01:02 AM 0.016 0.016 0.016 0.016 0.016 Not Reported Not Reported
05/15/2019 09:18 AM 50.00 46.94 44.24 66.02 54.86 80.0 Not Reported 8.05 SE 11.18 SE 10.29 SE No 0.000 No Precipitation 05/15/2019 01:12 AM 05/15/2019 01:17 AM 0.020 0.024 0.024 0.024 0.024 Not Reported Not Reported
05/15/2019 09:33 AM 49.64 47.12 44.78 66.02 54.86 83.0 Not Reported 13.87 SE 17.00 SE 13.20 SE Yes 0.128 Rain Moderate 05/15/2019 01:21 AM   0.039 0.043 0.043 0.043 0.043 Not Reported Not Reported
05/15/2019 09:48 AM 49.64 47.12 44.96 66.02 54.86 84.0 Not Reported 14.32 SE 16.55 SE 22.15 SE Yes 0.043 Rain Slight 05/15/2019 01:21 AM   0.059 0.067 0.067 0.067 0.067 Not Reported Not Reported
05/15/2019 10:03 AM 49.10 47.12 45.32 66.02 54.86 87.0 Not Reported 11.63 SE 12.75 S 15.66 SE Yes 0.043 Rain Slight 05/15/2019 01:55 AM   0.063 0.079 0.079 0.079 0.079 Not Reported Not Reported
05/15/2019 10:18 AM 49.10 46.76 44.78 66.02 54.86 84.0 Not Reported 19.91 SE 16.78 SE 22.82 SE Yes 0.043 Rain Slight 05/15/2019 02:06 AM   0.067 0.091 0.091 0.091 0.091 Not Reported Not Reported
05/15/2019 10:33 AM 48.74 46.40 44.06 66.02 54.86 83.0 Not Reported 16.78 SE 18.12 SE 24.38 SE Yes 0.043 Rain Slight 05/15/2019 02:28 AM   0.051 0.091 0.091 0.091 0.091 Not Reported Not Reported
05/15/2019 10:48 AM 48.92 46.58 44.24 66.02 54.86 83.0 Not Reported 10.96 SE 16.33 E 21.70 SE Yes 0.085 Rain Moderate 05/15/2019 02:36 AM   0.043 0.106 0.106 0.106 0.106 Not Reported Not Reported
05/15/2019 11:03 AM 49.10 46.22 43.52 66.02 54.86 81.0 Not Reported 11.86 SE 11.86 SE 25.50 SE No 0.000 No Precipitation 05/15/2019 02:56 AM 05/15/2019 03:01 AM 0.039 0.114 0.114 0.114 0.114 Not Reported Not Reported
05/15/2019 11:18 AM 49.10 46.58 44.24 66.02 54.86 83.0 Not Reported 17.90 SE 20.58 SE 21.47 SE Yes 0.085 Rain Moderate 05/15/2019 03:15 AM   0.043 0.126 0.130 0.130 0.130 Not Reported Not Reported
05/15/2019 11:33 AM 48.38 46.22 44.06 66.02 54.86 84.0 Not Reported 24.83 SE 21.25 SE 27.29 SE Yes 0.128 Rain Moderate 05/15/2019 03:15 AM   0.063 0.150 0.154 0.154 0.154 Not Reported Not Reported
05/15/2019 11:48 AM 48.38 46.04 43.88 66.02 54.86 83.0 Not Reported 18.79 SE 25.95 SE 29.08 SE Yes 0.085 Rain Moderate 05/15/2019 03:15 AM   0.071 0.169 0.177 0.177 0.177 Not Reported Not Reported
05/15/2019 12:03 PM 48.56 46.22 44.06 66.02 54.86 83.0 Not Reported 23.49 SE 24.38 SE 24.16 E Yes 0.128 Rain Moderate 05/15/2019 03:15 AM   0.091 0.189 0.205 0.205 0.205 Not Reported Not Reported
05/15/2019 12:18 PM 48.56 46.22 44.06 66.02 54.86 84.0 Not Reported 20.36 SE 22.15 SE 27.07 SE Yes 0.128 Rain Moderate 05/15/2019 03:15 AM   0.102 0.209 0.232 0.232 0.232 Not Reported Not Reported
05/15/2019 12:33 PM 48.74 46.40 44.06 66.02 54.86 83.0 Not Reported 21.03 SE 23.71 SE 24.61 SE Yes 0.128 Rain Moderate 05/15/2019 03:15 AM   0.098 0.213 0.256 0.256 0.256 Not Reported Not Reported
05/15/2019 12:48 PM 48.74 46.40 44.24 66.02 54.86 84.0 Not Reported 21.47 SE 18.12 E 28.41 SE Yes 0.043 Rain Slight 05/15/2019 03:15 AM   0.091 0.205 0.272 0.272 0.272 Not Reported Not Reported
05/15/2019 01:03 PM 48.92 46.40 44.06 66.02 54.86 83.0 Not Reported 22.15 SE 25.95 SE 27.74 SE Yes 0.043 Rain Slight 05/15/2019 03:15 AM   0.087 0.213 0.291 0.291 0.291 Not Reported Not Reported
05/15/2019 01:18 PM 49.82 47.12 44.60 66.02 54.86 82.0 Not Reported 26.62 SE 21.70 SE 35.34 SE No 0.000 No Precipitation 05/15/2019 03:15 AM 05/15/2019 05:17 AM 0.075 0.217 0.307 0.307 0.307 Not Reported Not Reported
05/15/2019 01:33 PM 49.82 46.94 44.06 66.02 54.86 80.0 Not Reported 22.15 SE 23.04 SE 30.87 SE No 0.000 No Precipitation 05/15/2019 05:19 AM 05/15/2019 05:29 AM 0.059 0.220 0.315 0.315 0.315 Not Reported Not Reported
05/15/2019 01:48 PM 49.82 46.76 44.06 66.02 54.86 80.0 Not Reported 23.26 SE 20.58 SE 31.54 SE Yes 0.043 Rain Slight 05/15/2019 05:43 AM   0.051 0.213 0.323 0.323 0.323 Not Reported Not Reported
05/15/2019 02:03 PM 49.82 46.58 43.34 66.02 54.86 77.0 Not Reported 15.88 SE 25.28 SE 19.46 SE No 0.000 No Precipitation 05/15/2019 05:43 AM 05/15/2019 05:48 AM 0.031 0.205 0.323 0.323 0.323 Not Reported Not Reported
05/15/2019 02:18 PM 50.00 47.30 44.78 66.02 54.86 81.0 Not Reported 19.69 SE 16.11 E 26.17 SE No 0.000 No Precipitation 05/15/2019 06:06 AM 05/15/2019 06:11 AM 0.020 0.193 0.323 0.327 0.327 Not Reported Not Reported
05/15/2019 02:33 PM 50.54 47.30 44.42 66.02 54.86 79.0 Not Reported 14.76 SE 16.11 SE 24.83 SE No 0.000 No Precipitation 05/15/2019 06:06 AM 05/15/2019 06:11 AM 0.012 0.169 0.323 0.327 0.327 Not Reported Not Reported
05/15/2019 02:48 PM 51.26 48.20 45.50 66.02 54.86 80.0 Not Reported 18.12 SE 12.75 SE 23.04 SE No 0.000 No Precipitation 05/15/2019 06:36 AM 05/15/2019 06:41 AM 0.008 0.150 0.323 0.331 0.331 Not Reported Not Reported
05/15/2019 03:03 PM 50.72 48.02 45.50 66.02 54.86 80.0 Not Reported 16.78 SE 19.69 SE 25.05 SE No 0.000 No Precipitation 05/15/2019 06:57 AM 05/15/2019 07:02 AM 0.012 0.126 0.319 0.335 0.335 Not Reported Not Reported
05/15/2019 03:18 PM 50.54 47.84 45.14 66.02 54.86 81.0 Not Reported 15.66 SE 15.43 SE 22.59 SE No 0.000 No Precipitation 05/15/2019 07:03 AM 05/15/2019 07:08 AM 0.012 0.102 0.315 0.339 0.339 Not Reported Not Reported
05/15/2019 03:33 PM 51.26 48.02 45.14 66.02 54.86 79.0 Not Reported 19.01 SE 22.15 SE 22.15 SE Yes 0.043 Rain Slight 05/15/2019 07:29 AM   0.016 0.087 0.299 0.343 0.343 Not Reported Not Reported
05/15/2019 03:48 PM 51.44 48.02 44.96 66.02 54.86 78.0 Not Reported 16.78 SE 19.01 SE 25.05 SE No 0.000 No Precipitation 05/15/2019 07:36 AM 05/15/2019 07:41 AM 0.016 0.075 0.280 0.346 0.346 Not Reported Not Reported
05/15/2019 04:03 PM 51.62 48.20 45.14 66.02 54.86 78.0 Not Reported 23.49 SE 12.30 SE 26.84 SE No 0.000 No Precipitation 05/15/2019 07:36 AM 05/15/2019 07:41 AM 0.012 0.055 0.268 0.346 0.346 Not Reported Not Reported
05/15/2019 04:18 PM 51.80 48.38 45.14 66.02 54.86 77.0 Not Reported 15.43 SE 17.90 SE 28.63 SE No 0.000 No Precipitation 05/15/2019 07:36 AM 05/15/2019 07:41 AM 0.008 0.039 0.256 0.346 0.346 Not Reported Not Reported
05/15/2019 04:33 PM 52.16 48.38 44.78 66.02 54.86 75.0 Not Reported 17.90 SE 25.05 SE 29.30 SE No 0.000 No Precipitation 05/15/2019 07:36 AM 05/15/2019 07:41 AM 0.004 0.031 0.252 0.346 0.346 Not Reported Not Reported
05/15/2019 04:48 PM 51.80 48.38 45.32 66.02 54.86 78.0 Not Reported 21.25 SE 21.03 SE 26.84 S No 0.000 No Precipitation 05/15/2019 07:36 AM 05/15/2019 07:41 AM 0.000 0.024 0.236 0.346 0.346 Not Reported Not Reported
05/15/2019 05:03 PM 51.98 48.74 46.04 66.02 54.86 80.0 Not Reported 21.03 SE 14.99 SE 19.01 SE No 0.000 No Precipitation 05/15/2019 07:36 AM 05/15/2019 07:41 AM 0.000 0.024 0.228 0.346 0.346 Not Reported Not Reported
05/15/2019 05:18 PM 51.80 48.56 45.68 66.02 54.86 80.0 Not Reported 19.01 SE 17.90 SE 25.05 SE No 0.000 No Precipitation 05/15/2019 09:12 AM 05/15/2019 09:17 AM 0.004 0.024 0.217 0.350 0.350 Not Reported Not Reported
05/15/2019 05:33 PM 52.34 49.10 45.68 66.02 54.86 78.0 Not Reported 19.69 SE 14.99 SE 23.49 SE No 0.000 No Precipitation 05/15/2019 09:12 AM 05/15/2019 09:17 AM 0.004 0.024 0.193 0.350 0.350 Not Reported Not Reported
05/15/2019 05:48 PM 51.26 47.84 44.60 66.02 54.86 78.0 Not Reported 14.54 SE 20.13 SE 25.28 SE No 0.000 No Precipitation 05/15/2019 09:12 AM 05/15/2019 09:17 AM 0.004 0.020 0.169 0.350 0.350 Not Reported Not Reported
05/15/2019 06:03 PM 51.08 48.02 45.32 66.02 54.86 80.0 Not Reported 13.42 SE 15.66 SE 19.01 SE No 0.000 No Precipitation 05/15/2019 09:52 AM 05/15/2019 09:57 AM 0.008 0.020 0.146 0.354 0.354 Not Reported Not Reported
05/15/2019 06:18 PM 50.18 47.84 45.68 66.02 54.86 83.0 Not Reported 18.57 SE 13.87 SE 17.22 SE No 0.000 No Precipitation 05/15/2019 10:11 AM 05/15/2019 10:16 AM 0.008 0.020 0.122 0.358 0.358 Not Reported Not Reported
05/15/2019 06:33 PM 50.90 48.38 46.04 66.02 54.86 83.0 Not Reported 11.41 SE 11.18 SE 20.58 SE No 0.000 No Precipitation 05/15/2019 10:20 AM 05/15/2019 10:25 AM 0.012 0.020 0.102 0.362 0.362 Not Reported Not Reported
05/15/2019 06:48 PM 50.36 47.84 45.68 66.02 54.86 83.0 Not Reported 13.20 SE 10.29 SE 14.54 S Yes 0.043 Rain Slight 05/15/2019 10:44 AM   0.020 0.024 0.094 0.374 0.374 Not Reported Not Reported
05/15/2019 07:03 PM 50.18 47.84 45.86 66.02 54.86 84.0 Not Reported 12.53 SE 1.34 SE 25.50 SE No 0.000 No Precipitation 05/15/2019 10:54 AM 05/15/2019 10:59 AM 0.020 0.028 0.083 0.378 0.378 Not Reported Not Reported
05/15/2019 07:18 PM 49.82 47.66 45.68 66.02 54.86 85.0 Not Reported 11.86 SE 12.97 SE 21.03 SE Yes 0.043 Rain Slight 05/15/2019 11:12 AM   0.028 0.039 0.079 0.390 0.390 Not Reported Not Reported
05/15/2019 07:33 PM 49.64 47.48 45.50 66.02 54.86 85.0 Not Reported 19.91 SE 23.49 SE 27.07 SE Yes 0.085 Rain Moderate 05/15/2019 11:12 AM   0.039 0.055 0.087 0.406 0.406 Not Reported Not Reported
05/15/2019 07:48 PM 49.46 47.12 44.96 66.02 54.86 83.0 Not Reported 17.22 SE 20.80 SE 29.08 SE Yes 0.043 Rain Slight 05/15/2019 11:12 AM   0.047 0.071 0.091 0.421 0.421 Not Reported Not Reported
05/15/2019 08:03 PM 49.10 46.76 44.42 66.02 54.86 83.0 Not Reported 18.79 SE 19.24 SE 27.74 SE Yes 0.085 Rain Moderate 05/15/2019 11:12 AM   0.067 0.091 0.114 0.445 0.445 Not Reported Not Reported
05/15/2019 08:18 PM 49.10 46.76 44.60 66.02 54.86 84.0 Not Reported 23.04 SE 23.26 SE 29.97 S Yes 0.085 Rain Moderate 05/15/2019 11:12 AM   0.075 0.106 0.130 0.461 0.465 Not Reported Not Reported
05/15/2019 08:33 PM 48.74 46.58 44.60 66.02 54.86 85.0 Not Reported 19.46 SE 18.79 SE 25.28 SE Yes 0.085 Rain Moderate 05/15/2019 11:12 AM   0.083 0.130 0.154 0.484 0.488 Not Reported Not Reported
05/15/2019 08:48 PM 48.74 46.76 44.60 66.02 54.86 85.0 Not Reported 20.80 SE 16.11 SE 24.16 SE Yes 0.043 Rain Slight 05/15/2019 11:12 AM   0.087 0.150 0.169 0.500 0.508 Not Reported Not Reported
05/15/2019 09:03 PM 48.92 46.58 44.42 66.02 54.86 84.0 Not Reported 22.59 SE 15.66 SE 30.87 SE Yes 0.085 Rain Moderate 05/15/2019 11:12 AM   0.094 0.181 0.201 0.528 0.543 Not Reported Not Reported
05/15/2019 09:18 PM 48.56 46.58 44.78 66.02 54.86 86.0 Not Reported 18.57 SE 21.47 SE 29.30 SE Yes 0.184 Rain Moderate 05/15/2019 11:12 AM   0.118 0.220 0.240 0.563 0.587 Not Reported Not Reported
05/15/2019 09:33 PM 48.74 46.58 44.60 66.02 54.86 85.0 Not Reported 21.92 SE 31.54 SE 31.99 SE Yes 0.227 Rain Moderate 05/15/2019 11:12 AM   0.150 0.272 0.291 0.598 0.642 Not Reported Not Reported
05/15/2019 09:48 PM 48.38 46.22 44.24 66.02 54.86 85.0 Not Reported 26.62 SE 24.83 SE 31.54 SE Yes 0.227 Rain Moderate 05/15/2019 11:12 AM   0.189 0.323 0.346 0.634 0.701 Not Reported Not Reported
05/15/2019 10:03 PM 48.20 45.86 43.52 66.02 54.86 83.0 Not Reported 22.37 SE 36.01 SE 29.53 SE Yes 0.184 Rain Moderate 05/15/2019 11:12 AM   0.205 0.374 0.402 0.673 0.752 Not Reported Not Reported
05/15/2019 10:18 PM 47.48 45.86 44.24 66.02 54.86 88.0 Not Reported 21.92 SE 20.58 SE 36.01 SE Yes 0.369 Rain Heavy 05/15/2019 11:12 AM   0.236 0.437 0.476 0.736 0.827 Not Reported Not Reported
05/15/2019 10:33 PM 47.12 45.50 44.06 66.02 54.86 88.0 Not Reported 19.01 SE 28.19 SE 25.72 SE Yes 0.369 Rain Heavy 05/15/2019 11:12 AM   0.256 0.496 0.551 0.807 0.902 Not Reported Not Reported
05/15/2019 10:48 PM 46.76 44.78 42.98 66.02 54.86 87.0 Not Reported 22.82 SE 22.59 S 28.19 SE Yes 0.326 Rain Heavy 05/15/2019 11:12 AM   0.280 0.563 0.634 0.874 0.984 Not Reported Not Reported
05/15/2019 11:03 PM 46.76 44.78 42.98 66.02 54.86 86.0 Not Reported 23.94 SE 20.80 SE 31.32 SE Yes 0.326 Rain Heavy 05/15/2019 11:12 AM   0.311 0.622 0.717 0.949 1.067 Not Reported Not Reported
05/15/2019 11:18 PM 46.58 45.14 43.70 66.02 54.86 89.0 Not Reported 22.59 SE 22.37 SE 29.08 SE Yes 0.369 Rain Heavy 05/15/2019 11:12 AM   0.331 0.697 0.807 1.028 1.161 Not Reported Not Reported
05/15/2019 11:33 PM 46.04 44.60 43.16 66.02 54.86 89.0 Not Reported 22.59 SE 19.01 SE 29.75 SE Yes 0.510 Rain Heavy 05/15/2019 11:12 AM   0.374 0.787 0.921 1.118 1.276 Not Reported Not Reported
05/15/2019 11:48 PM 46.04 44.60 43.34 66.02 54.86 89.0 Not Reported 19.01 SE 20.36 SE 26.62 SE Yes 0.269 Rain Moderate 05/15/2019 11:12 AM   0.374 0.850 1.004 1.177 1.358 Not Reported Not Reported